sensor_id;sensor_type;location;lat;lon;timestamp;temperature;humidity
10384;DHT22;5238;43.508;4.980;2023-07-20T00:01:38;29.20;91.30
10384;DHT22;5238;43.508;4.980;2023-07-20T00:04:06;29.20;91.30
10384;DHT22;5238;43.508;4.980;2023-07-20T00:06:33;29.10;91.30
10384;DHT22;5238;43.508;4.980;2023-07-20T00:09:00;29.10;91.30
10384;DHT22;5238;43.508;4.980;2023-07-20T00:11:28;29.10;91.30
10384;DHT22;5238;43.508;4.980;2023-07-20T00:13:55;29.00;91.30
10384;DHT22;5238;43.508;4.980;2023-07-20T00:16:22;29.00;91.30
10384;DHT22;5238;43.508;4.980;2023-07-20T00:18:49;29.00;91.30
10384;DHT22;5238;43.508;4.980;2023-07-20T00:21:16;29.00;91.30
10384;DHT22;5238;43.508;4.980;2023-07-20T00:23:43;28.90;91.30
10384;DHT22;5238;43.508;4.980;2023-07-20T00:26:10;28.90;91.30
10384;DHT22;5238;43.508;4.980;2023-07-20T00:28:38;28.90;91.30
10384;DHT22;5238;43.508;4.980;2023-07-20T00:31:05;28.80;91.30
10384;DHT22;5238;43.508;4.980;2023-07-20T00:33:32;28.80;91.30
10384;DHT22;5238;43.508;4.980;2023-07-20T00:35:59;28.80;91.30
10384;DHT22;5238;43.508;4.980;2023-07-20T00:38:26;28.70;91.30
10384;DHT22;5238;43.508;4.980;2023-07-20T00:40:53;28.70;91.30
10384;DHT22;5238;43.508;4.980;2023-07-20T00:43:20;28.70;91.30
10384;DHT22;5238;43.508;4.980;2023-07-20T00:45:49;28.60;91.30
10384;DHT22;5238;43.508;4.980;2023-07-20T00:48:16;28.60;91.30
10384;DHT22;5238;43.508;4.980;2023-07-20T00:50:43;28.60;91.30
10384;DHT22;5238;43.508;4.980;2023-07-20T00:53:11;28.60;91.30
10384;DHT22;5238;43.508;4.980;2023-07-20T00:55:38;28.50;91.30
10384;DHT22;5238;43.508;4.980;2023-07-20T00:58:05;28.50;91.30
10384;DHT22;5238;43.508;4.980;2023-07-20T01:00:32;28.50;91.30
10384;DHT22;5238;43.508;4.980;2023-07-20T01:03:00;28.40;91.30
10384;DHT22;5238;43.508;4.980;2023-07-20T01:05:35;28.40;91.30
10384;DHT22;5238;43.508;4.980;2023-07-20T01:08:17;28.40;91.30
10384;DHT22;5238;43.508;4.980;2023-07-20T01:10:51;28.30;91.30
10384;DHT22;5238;43.508;4.980;2023-07-20T01:13:20;28.30;91.30
10384;DHT22;5238;43.508;4.980;2023-07-20T01:15:49;28.30;91.30
10384;DHT22;5238;43.508;4.980;2023-07-20T01:18:18;28.20;91.30
10384;DHT22;5238;43.508;4.980;2023-07-20T01:20:44;28.20;91.30
10384;DHT22;5238;43.508;4.980;2023-07-20T01:23:50;28.20;91.30
10384;DHT22;5238;43.508;4.980;2023-07-20T01:26:38;28.10;91.30
10384;DHT22;5238;43.508;4.980;2023-07-20T01:29:36;28.10;91.30
10384;DHT22;5238;43.508;4.980;2023-07-20T01:32:09;28.00;91.30
10384;DHT22;5238;43.508;4.980;2023-07-20T01:34:38;28.00;91.30
10384;DHT22;5238;43.508;4.980;2023-07-20T01:37:07;27.90;91.30
10384;DHT22;5238;43.508;4.980;2023-07-20T01:39:35;27.90;91.30
10384;DHT22;5238;43.508;4.980;2023-07-20T01:42:04;27.90;91.30
10384;DHT22;5238;43.508;4.980;2023-07-20T01:44:31;27.80;91.30
10384;DHT22;5238;43.508;4.980;2023-07-20T01:46:58;27.80;91.30
10384;DHT22;5238;43.508;4.980;2023-07-20T01:49:27;27.70;91.30
10384;DHT22;5238;43.508;4.980;2023-07-20T01:51:54;27.70;91.30
10384;DHT22;5238;43.508;4.980;2023-07-20T01:54:21;27.70;91.30
10384;DHT22;5238;43.508;4.980;2023-07-20T01:56:47;27.60;91.30
10384;DHT22;5238;43.508;4.980;2023-07-20T01:59:14;27.60;91.30
10384;DHT22;5238;43.508;4.980;2023-07-20T02:01:41;27.60;91.30
10384;DHT22;5238;43.508;4.980;2023-07-20T02:04:08;27.50;91.30
10384;DHT22;5238;43.508;4.980;2023-07-20T02:06:37;27.50;91.30
10384;DHT22;5238;43.508;4.980;2023-07-20T02:09:04;27.50;91.30
10384;DHT22;5238;43.508;4.980;2023-07-20T02:11:31;27.40;91.30
10384;DHT22;5238;43.508;4.980;2023-07-20T02:13:58;27.40;91.30
10384;DHT22;5238;43.508;4.980;2023-07-20T02:16:25;27.40;91.30
10384;DHT22;5238;43.508;4.980;2023-07-20T02:18:52;27.40;91.30
10384;DHT22;5238;43.508;4.980;2023-07-20T02:21:22;27.30;91.30
10384;DHT22;5238;43.508;4.980;2023-07-20T02:23:50;27.30;91.30
10384;DHT22;5238;43.508;4.980;2023-07-20T02:26:17;27.30;91.30
10384;DHT22;5238;43.508;4.980;2023-07-20T02:28:44;27.20;91.30
10384;DHT22;5238;43.508;4.980;2023-07-20T02:31:11;27.20;91.30
10384;DHT22;5238;43.508;4.980;2023-07-20T02:33:38;27.10;91.30
10384;DHT22;5238;43.508;4.980;2023-07-20T02:36:05;27.10;91.30
10384;DHT22;5238;43.508;4.980;2023-07-20T02:38:32;27.10;91.30
10384;DHT22;5238;43.508;4.980;2023-07-20T02:41:00;27.10;91.30
10384;DHT22;5238;43.508;4.980;2023-07-20T02:43:28;27.00;91.30
10384;DHT22;5238;43.508;4.980;2023-07-20T02:45:55;27.00;91.30
10384;DHT22;5238;43.508;4.980;2023-07-20T02:48:22;27.00;91.30
10384;DHT22;5238;43.508;4.980;2023-07-20T02:50:49;26.90;91.30
10384;DHT22;5238;43.508;4.980;2023-07-20T02:53:16;26.90;91.30
10384;DHT22;5238;43.508;4.980;2023-07-20T02:55:43;26.90;91.30
10384;DHT22;5238;43.508;4.980;2023-07-20T02:58:11;26.80;91.30
10384;DHT22;5238;43.508;4.980;2023-07-20T03:00:38;26.80;91.30
10384;DHT22;5238;43.508;4.980;2023-07-20T03:03:05;26.80;91.30
10384;DHT22;5238;43.508;4.980;2023-07-20T03:05:35;26.70;91.30
10384;DHT22;5238;43.508;4.980;2023-07-20T03:08:04;26.70;91.30
10384;DHT22;5238;43.508;4.980;2023-07-20T03:10:31;26.70;91.30
10384;DHT22;5238;43.508;4.980;2023-07-20T03:12:58;26.70;91.30
10384;DHT22;5238;43.508;4.980;2023-07-20T03:15:27;26.70;91.30
10384;DHT22;5238;43.508;4.980;2023-07-20T03:17:55;26.60;91.30
10384;DHT22;5238;43.508;4.980;2023-07-20T03:20:22;26.60;91.30
10384;DHT22;5238;43.508;4.980;2023-07-20T03:22:48;26.60;91.30
10384;DHT22;5238;43.508;4.980;2023-07-20T03:25:16;26.50;91.30
10384;DHT22;5238;43.508;4.980;2023-07-20T03:27:43;26.50;91.30
10384;DHT22;5238;43.508;4.980;2023-07-20T03:30:10;26.50;91.30
10384;DHT22;5238;43.508;4.980;2023-07-20T03:32:39;26.50;91.30
10384;DHT22;5238;43.508;4.980;2023-07-20T03:35:07;26.40;91.30
10384;DHT22;5238;43.508;4.980;2023-07-20T03:37:34;26.40;91.30
10384;DHT22;5238;43.508;4.980;2023-07-20T03:40:02;26.40;91.30
10384;DHT22;5238;43.508;4.980;2023-07-20T03:42:30;26.40;91.30
10384;DHT22;5238;43.508;4.980;2023-07-20T03:44:57;26.30;91.30
10384;DHT22;5238;43.508;4.980;2023-07-20T03:47:24;26.30;91.30
10384;DHT22;5238;43.508;4.980;2023-07-20T03:49:52;26.30;91.30
10384;DHT22;5238;43.508;4.980;2023-07-20T03:52:19;26.20;91.30
10384;DHT22;5238;43.508;4.980;2023-07-20T03:54:46;26.20;91.30
10384;DHT22;5238;43.508;4.980;2023-07-20T03:57:13;26.20;91.30
10384;DHT22;5238;43.508;4.980;2023-07-20T03:59:45;26.20;91.30
10384;DHT22;5238;43.508;4.980;2023-07-20T04:02:12;26.20;91.30
10384;DHT22;5238;43.508;4.980;2023-07-20T04:04:39;26.10;91.30
10384;DHT22;5238;43.508;4.980;2023-07-20T04:07:07;26.10;91.30
10384;DHT22;5238;43.508;4.980;2023-07-20T04:09:34;26.10;91.30
10384;DHT22;5238;43.508;4.980;2023-07-20T04:12:01;26.10;91.30
10384;DHT22;5238;43.508;4.980;2023-07-20T04:14:28;26.00;91.30
10384;DHT22;5238;43.508;4.980;2023-07-20T04:16:55;26.00;91.30
10384;DHT22;5238;43.508;4.980;2023-07-20T04:19:22;26.00;91.30
10384;DHT22;5238;43.508;4.980;2023-07-20T04:21:49;26.00;91.30
10384;DHT22;5238;43.508;4.980;2023-07-20T04:24:17;26.00;91.30
10384;DHT22;5238;43.508;4.980;2023-07-20T04:26:44;25.90;91.30
10384;DHT22;5238;43.508;4.980;2023-07-20T04:29:11;25.90;91.30
10384;DHT22;5238;43.508;4.980;2023-07-20T04:31:38;25.90;91.30
10384;DHT22;5238;43.508;4.980;2023-07-20T04:34:05;25.90;91.30
10384;DHT22;5238;43.508;4.980;2023-07-20T04:36:32;25.90;91.30
10384;DHT22;5238;43.508;4.980;2023-07-20T04:38:59;25.90;91.30
10384;DHT22;5238;43.508;4.980;2023-07-20T04:41:27;25.90;91.30
10384;DHT22;5238;43.508;4.980;2023-07-20T04:43:54;25.90;91.30
10384;DHT22;5238;43.508;4.980;2023-07-20T04:46:21;25.80;91.30
10384;DHT22;5238;43.508;4.980;2023-07-20T04:48:48;25.90;91.30
10384;DHT22;5238;43.508;4.980;2023-07-20T04:51:15;25.90;91.30
10384;DHT22;5238;43.508;4.980;2023-07-20T04:53:46;25.90;91.30
10384;DHT22;5238;43.508;4.980;2023-07-20T04:56:14;25.90;91.30
10384;DHT22;5238;43.508;4.980;2023-07-20T04:58:42;25.90;91.30
10384;DHT22;5238;43.508;4.980;2023-07-20T05:01:09;25.90;91.30
10384;DHT22;5238;43.508;4.980;2023-07-20T05:03:36;26.00;91.30
10384;DHT22;5238;43.508;4.980;2023-07-20T05:06:03;26.00;91.30
10384;DHT22;5238;43.508;4.980;2023-07-20T05:08:30;26.00;91.30
10384;DHT22;5238;43.508;4.980;2023-07-20T05:10:57;26.00;91.30
10384;DHT22;5238;43.508;4.980;2023-07-20T05:13:24;26.00;91.30
10384;DHT22;5238;43.508;4.980;2023-07-20T05:15:53;26.00;91.30
10384;DHT22;5238;43.508;4.980;2023-07-20T05:18:20;26.00;91.30
10384;DHT22;5238;43.508;4.980;2023-07-20T05:20:47;26.10;91.30
10384;DHT22;5238;43.508;4.980;2023-07-20T05:23:14;26.10;91.30
10384;DHT22;5238;43.508;4.980;2023-07-20T05:25:41;26.10;91.30
10384;DHT22;5238;43.508;4.980;2023-07-20T05:28:09;26.10;91.30
10384;DHT22;5238;43.508;4.980;2023-07-20T05:30:36;26.20;91.30
10384;DHT22;5238;43.508;4.980;2023-07-20T05:33:04;26.20;91.30
10384;DHT22;5238;43.508;4.980;2023-07-20T05:35:31;26.20;91.30
10384;DHT22;5238;43.508;4.980;2023-07-20T05:37:58;26.30;91.30
10384;DHT22;5238;43.508;4.980;2023-07-20T05:40:25;26.30;91.30
10384;DHT22;5238;43.508;4.980;2023-07-20T05:42:52;26.30;91.30
10384;DHT22;5238;43.508;4.980;2023-07-20T05:45:21;26.40;91.30
10384;DHT22;5238;43.508;4.980;2023-07-20T05:47:48;26.40;91.30
10384;DHT22;5238;43.508;4.980;2023-07-20T05:50:16;26.40;91.30
10384;DHT22;5238;43.508;4.980;2023-07-20T05:52:43;26.40;91.30
10384;DHT22;5238;43.508;4.980;2023-07-20T05:55:10;26.50;91.30
10384;DHT22;5238;43.508;4.980;2023-07-20T05:57:37;26.50;91.30
10384;DHT22;5238;43.508;4.980;2023-07-20T06:00:08;26.60;91.30
10384;DHT22;5238;43.508;4.980;2023-07-20T06:02:35;26.60;91.30
10384;DHT22;5238;43.508;4.980;2023-07-20T06:05:02;26.60;91.30
10384;DHT22;5238;43.508;4.980;2023-07-20T06:07:31;26.70;91.30
10384;DHT22;5238;43.508;4.980;2023-07-20T06:09:58;26.70;91.30
10384;DHT22;5238;43.508;4.980;2023-07-20T06:12:25;26.80;91.30
10384;DHT22;5238;43.508;4.980;2023-07-20T06:14:52;26.80;91.30
10384;DHT22;5238;43.508;4.980;2023-07-20T06:17:20;26.80;91.30
10384;DHT22;5238;43.508;4.980;2023-07-20T06:19:47;26.90;91.30
10384;DHT22;5238;43.508;4.980;2023-07-20T06:22:14;27.00;91.30
10384;DHT22;5238;43.508;4.980;2023-07-20T06:24:43;27.10;91.30
10384;DHT22;5238;43.508;4.980;2023-07-20T06:27:10;27.20;91.30
10384;DHT22;5238;43.508;4.980;2023-07-20T06:29:38;27.40;91.30
10384;DHT22;5238;43.508;4.980;2023-07-20T06:32:06;27.50;91.30
10384;DHT22;5238;43.508;4.980;2023-07-20T06:34:33;27.60;91.30
10384;DHT22;5238;43.508;4.980;2023-07-20T06:37:02;27.80;91.30
10384;DHT22;5238;43.508;4.980;2023-07-20T06:39:30;28.00;91.30
10384;DHT22;5238;43.508;4.980;2023-07-20T06:41:58;28.10;91.30
10384;DHT22;5238;43.508;4.980;2023-07-20T06:44:25;28.30;91.30
10384;DHT22;5238;43.508;4.980;2023-07-20T06:46:53;28.60;91.30
10384;DHT22;5238;43.508;4.980;2023-07-20T06:49:26;28.80;91.30
10384;DHT22;5238;43.508;4.980;2023-07-20T06:51:53;29.10;91.30
10384;DHT22;5238;43.508;4.980;2023-07-20T06:54:20;29.30;91.30
10384;DHT22;5238;43.508;4.980;2023-07-20T06:56:47;29.60;91.30
10384;DHT22;5238;43.508;4.980;2023-07-20T06:59:15;29.90;91.30
10384;DHT22;5238;43.508;4.980;2023-07-20T07:01:43;30.20;91.30
10384;DHT22;5238;43.508;4.980;2023-07-20T07:04:10;30.50;91.30
10384;DHT22;5238;43.508;4.980;2023-07-20T07:06:37;30.80;91.30
10384;DHT22;5238;43.508;4.980;2023-07-20T07:09:04;31.00;91.30
10384;DHT22;5238;43.508;4.980;2023-07-20T07:11:31;31.20;91.30
10384;DHT22;5238;43.508;4.980;2023-07-20T07:13:58;31.40;91.30
10384;DHT22;5238;43.508;4.980;2023-07-20T07:16:26;31.60;91.30
10384;DHT22;5238;43.508;4.980;2023-07-20T07:18:53;31.80;91.30
10384;DHT22;5238;43.508;4.980;2023-07-20T07:21:20;32.00;91.30
10384;DHT22;5238;43.508;4.980;2023-07-20T07:23:47;32.20;91.30
10384;DHT22;5238;43.508;4.980;2023-07-20T07:26:15;32.40;91.30
10384;DHT22;5238;43.508;4.980;2023-07-20T07:28:42;32.60;91.30
10384;DHT22;5238;43.508;4.980;2023-07-20T07:31:09;32.70;91.30
10384;DHT22;5238;43.508;4.980;2023-07-20T07:33:38;32.90;91.30
10384;DHT22;5238;43.508;4.980;2023-07-20T07:36:05;33.10;91.30
10384;DHT22;5238;43.508;4.980;2023-07-20T07:38:32;33.30;91.30
10384;DHT22;5238;43.508;4.980;2023-07-20T07:40:59;33.50;91.30
10384;DHT22;5238;43.508;4.980;2023-07-20T07:43:26;33.60;91.30
10384;DHT22;5238;43.508;4.980;2023-07-20T07:45:54;33.80;91.30
10384;DHT22;5238;43.508;4.980;2023-07-20T07:48:22;34.10;91.30
10384;DHT22;5238;43.508;4.980;2023-07-20T07:50:53;34.40;91.30
10384;DHT22;5238;43.508;4.980;2023-07-20T07:53:20;34.70;91.30
10384;DHT22;5238;43.508;4.980;2023-07-20T07:55:47;34.90;91.30
10384;DHT22;5238;43.508;4.980;2023-07-20T07:58:14;35.20;91.30
10384;DHT22;5238;43.508;4.980;2023-07-20T08:00:41;35.30;91.30
10384;DHT22;5238;43.508;4.980;2023-07-20T08:03:09;35.50;90.50
10384;DHT22;5238;43.508;4.980;2023-07-20T08:05:36;35.60;90.90
10384;DHT22;5238;43.508;4.980;2023-07-20T08:08:04;35.70;90.60
10384;DHT22;5238;43.508;4.980;2023-07-20T08:10:31;35.90;90.40
10384;DHT22;5238;43.508;4.980;2023-07-20T08:12:59;36.00;89.70
10384;DHT22;5238;43.508;4.980;2023-07-20T08:15:26;36.20;89.00
10384;DHT22;5238;43.508;4.980;2023-07-20T08:17:53;36.40;89.00
10384;DHT22;5238;43.508;4.980;2023-07-20T08:20:20;36.50;89.00
10384;DHT22;5238;43.508;4.980;2023-07-20T08:22:52;36.70;88.10
10384;DHT22;5238;43.508;4.980;2023-07-20T08:25:21;36.80;89.00
10384;DHT22;5238;43.508;4.980;2023-07-20T08:27:48;37.00;87.80
10384;DHT22;5238;43.508;4.980;2023-07-20T08:30:15;37.10;87.70
10384;DHT22;5238;43.508;4.980;2023-07-20T08:32:42;37.20;87.30
10384;DHT22;5238;43.508;4.980;2023-07-20T08:35:09;37.30;86.90
10384;DHT22;5238;43.508;4.980;2023-07-20T08:37:37;37.50;86.30
10384;DHT22;5238;43.508;4.980;2023-07-20T08:40:04;37.60;86.80
10384;DHT22;5238;43.508;4.980;2023-07-20T08:42:36;37.60;86.40
10384;DHT22;5238;43.508;4.980;2023-07-20T08:45:07;37.70;85.80
10384;DHT22;5238;43.508;4.980;2023-07-20T08:47:35;37.80;85.00
10384;DHT22;5238;43.508;4.980;2023-07-20T08:50:06;37.80;84.90
10384;DHT22;5238;43.508;4.980;2023-07-20T08:52:35;37.90;84.90
10384;DHT22;5238;43.508;4.980;2023-07-20T08:55:04;38.10;85.60
10384;DHT22;5238;43.508;4.980;2023-07-20T08:57:35;38.30;85.30
10384;DHT22;5238;43.508;4.980;2023-07-20T09:00:04;38.50;84.60
10384;DHT22;5238;43.508;4.980;2023-07-20T09:02:38;38.60;83.50
10384;DHT22;5238;43.508;4.980;2023-07-20T09:05:08;38.80;83.40
10384;DHT22;5238;43.508;4.980;2023-07-20T09:07:39;39.00;83.60
10384;DHT22;5238;43.508;4.980;2023-07-20T09:10:10;39.20;83.30
10384;DHT22;5238;43.508;4.980;2023-07-20T09:12:41;39.30;82.00
10384;DHT22;5238;43.508;4.980;2023-07-20T09:15:12;39.50;82.10
10384;DHT22;5238;43.508;4.980;2023-07-20T09:17:46;39.60;81.90
10384;DHT22;5238;43.508;4.980;2023-07-20T09:20:15;39.80;82.70
10384;DHT22;5238;43.508;4.980;2023-07-20T09:22:46;39.90;82.00
10384;DHT22;5238;43.508;4.980;2023-07-20T09:25:29;40.00;82.00
10384;DHT22;5238;43.508;4.980;2023-07-20T09:28:03;40.20;81.30
10384;DHT22;5238;43.508;4.980;2023-07-20T09:30:37;40.30;80.70
10384;DHT22;5238;43.508;4.980;2023-07-20T09:33:18;40.30;80.40
10384;DHT22;5238;43.508;4.980;2023-07-20T09:38:29;40.50;81.10
10384;DHT22;5238;43.508;4.980;2023-07-20T09:41:04;40.60;79.90
10384;DHT22;5238;43.508;4.980;2023-07-20T09:43:40;40.70;80.40
10384;DHT22;5238;43.508;4.980;2023-07-20T09:46:11;40.80;80.60
10384;DHT22;5238;43.508;4.980;2023-07-20T09:48:55;40.80;79.70
10384;DHT22;5238;43.508;4.980;2023-07-20T09:51:24;40.70;79.60
10384;DHT22;5238;43.508;4.980;2023-07-20T09:54:00;40.70;79.90
10384;DHT22;5238;43.508;4.980;2023-07-20T09:56:31;40.70;80.10
10384;DHT22;5238;43.508;4.980;2023-07-20T09:59:18;40.80;80.20
10384;DHT22;5238;43.508;4.980;2023-07-20T10:01:50;41.00;79.30
10384;DHT22;5238;43.508;4.980;2023-07-20T10:04:22;41.10;79.40
10384;DHT22;5238;43.508;4.980;2023-07-20T10:06:56;41.20;79.20
10384;DHT22;5238;43.508;4.980;2023-07-20T10:09:27;41.30;78.90
10384;DHT22;5238;43.508;4.980;2023-07-20T10:12:02;41.50;79.60
10384;DHT22;5238;43.508;4.980;2023-07-20T10:14:35;41.60;78.00
10384;DHT22;5238;43.508;4.980;2023-07-20T10:17:12;41.90;78.50
10384;DHT22;5238;43.508;4.980;2023-07-20T10:19:54;41.90;77.60
10384;DHT22;5238;43.508;4.980;2023-07-20T10:22:27;41.90;76.60
10384;DHT22;5238;43.508;4.980;2023-07-20T10:24:56;41.90;76.50
10384;DHT22;5238;43.508;4.980;2023-07-20T10:27:27;42.00;76.70
10384;DHT22;5238;43.508;4.980;2023-07-20T10:30:00;42.00;76.50
10384;DHT22;5238;43.508;4.980;2023-07-20T10:32:30;42.10;76.70
10384;DHT22;5238;43.508;4.980;2023-07-20T10:35:00;42.10;76.90
10384;DHT22;5238;43.508;4.980;2023-07-20T10:37:53;42.10;76.40
10384;DHT22;5238;43.508;4.980;2023-07-20T10:40:31;42.20;75.80
10384;DHT22;5238;43.508;4.980;2023-07-20T10:43:06;42.20;75.60
10384;DHT22;5238;43.508;4.980;2023-07-20T10:45:48;42.20;76.30
10384;DHT22;5238;43.508;4.980;2023-07-20T10:48:21;42.10;76.60
10384;DHT22;5238;43.508;4.980;2023-07-20T10:51:09;42.10;76.20
10384;DHT22;5238;43.508;4.980;2023-07-20T10:53:36;42.10;77.20
10384;DHT22;5238;43.508;4.980;2023-07-20T10:56:08;42.10;76.20
10384;DHT22;5238;43.508;4.980;2023-07-20T10:58:35;42.10;76.40
10384;DHT22;5238;43.508;4.980;2023-07-20T11:01:04;42.10;76.50
10384;DHT22;5238;43.508;4.980;2023-07-20T11:03:33;42.20;76.60
10384;DHT22;5238;43.508;4.980;2023-07-20T11:06:30;42.30;75.40
10384;DHT22;5238;43.508;4.980;2023-07-20T11:09:07;42.30;75.50
10384;DHT22;5238;43.508;4.980;2023-07-20T11:11:37;42.30;74.40
10384;DHT22;5238;43.508;4.980;2023-07-20T11:14:06;42.30;74.30
10384;DHT22;5238;43.508;4.980;2023-07-20T11:16:37;42.20;75.10
10384;DHT22;5238;43.508;4.980;2023-07-20T11:19:04;42.10;74.70
10384;DHT22;5238;43.508;4.980;2023-07-20T11:21:36;42.10;74.60
10384;DHT22;5238;43.508;4.980;2023-07-20T11:24:05;42.10;76.30
10384;DHT22;5238;43.508;4.980;2023-07-20T11:26:44;42.10;75.80
10384;DHT22;5238;43.508;4.980;2023-07-20T11:29:12;42.10;76.10
10384;DHT22;5238;43.508;4.980;2023-07-20T11:31:42;42.10;75.60
10384;DHT22;5238;43.508;4.980;2023-07-20T11:34:26;42.00;75.70
10384;DHT22;5238;43.508;4.980;2023-07-20T11:36:53;41.80;76.30
10384;DHT22;5238;43.508;4.980;2023-07-20T11:39:22;41.60;76.30
10384;DHT22;5238;43.508;4.980;2023-07-20T11:41:52;41.40;76.80
10384;DHT22;5238;43.508;4.980;2023-07-20T11:44:20;41.20;75.90
10384;DHT22;5238;43.508;4.980;2023-07-20T11:47:01;41.00;77.10
10384;DHT22;5238;43.508;4.980;2023-07-20T11:49:29;40.80;77.70
10384;DHT22;5238;43.508;4.980;2023-07-20T11:51:57;40.70;77.70
10384;DHT22;5238;43.508;4.980;2023-07-20T11:54:24;40.50;80.20
10384;DHT22;5238;43.508;4.980;2023-07-20T11:56:54;40.30;77.30
10384;DHT22;5238;43.508;4.980;2023-07-20T11:59:21;40.20;78.20
10384;DHT22;5238;43.508;4.980;2023-07-20T12:01:48;40.00;77.90
10384;DHT22;5238;43.508;4.980;2023-07-20T12:04:17;39.90;78.80
10384;DHT22;5238;43.508;4.980;2023-07-20T12:06:45;39.70;78.40
10384;DHT22;5238;43.508;4.980;2023-07-20T12:09:14;39.50;80.90
10384;DHT22;5238;43.508;4.980;2023-07-20T12:11:44;39.30;80.40
10384;DHT22;5238;43.508;4.980;2023-07-20T12:14:11;39.20;81.80
10384;DHT22;5238;43.508;4.980;2023-07-20T12:16:38;39.10;79.40
10384;DHT22;5238;43.508;4.980;2023-07-20T12:19:06;38.90;80.50
10384;DHT22;5238;43.508;4.980;2023-07-20T12:21:36;38.80;79.90
10384;DHT22;5238;43.508;4.980;2023-07-20T12:24:04;38.60;78.80
10384;DHT22;5238;43.508;4.980;2023-07-20T12:26:32;38.50;78.90
10384;DHT22;5238;43.508;4.980;2023-07-20T12:29:00;38.40;79.90
10384;DHT22;5238;43.508;4.980;2023-07-20T12:31:29;38.30;80.40
10384;DHT22;5238;43.508;4.980;2023-07-20T12:33:57;38.20;79.70
10384;DHT22;5238;43.508;4.980;2023-07-20T12:36:25;38.10;80.40
10384;DHT22;5238;43.508;4.980;2023-07-20T12:38:53;38.00;80.10
10384;DHT22;5238;43.508;4.980;2023-07-20T12:41:20;37.90;79.50
10384;DHT22;5238;43.508;4.980;2023-07-20T12:43:47;37.80;77.80
10384;DHT22;5238;43.508;4.980;2023-07-20T12:46:15;37.70;79.20
10384;DHT22;5238;43.508;4.980;2023-07-20T12:48:42;37.60;78.00
10384;DHT22;5238;43.508;4.980;2023-07-20T12:51:09;37.60;78.00
10384;DHT22;5238;43.508;4.980;2023-07-20T12:53:37;37.40;78.50
10384;DHT22;5238;43.508;4.980;2023-07-20T12:56:06;37.40;79.10
10384;DHT22;5238;43.508;4.980;2023-07-20T12:58:33;37.30;77.90
10384;DHT22;5238;43.508;4.980;2023-07-20T13:01:00;37.20;77.50
10384;DHT22;5238;43.508;4.980;2023-07-20T13:03:27;37.20;78.60
10384;DHT22;5238;43.508;4.980;2023-07-20T13:05:54;37.10;79.40
10384;DHT22;5238;43.508;4.980;2023-07-20T13:08:21;37.00;79.90
10384;DHT22;5238;43.508;4.980;2023-07-20T13:10:51;36.90;77.80
10384;DHT22;5238;43.508;4.980;2023-07-20T13:13:19;36.80;77.30
10384;DHT22;5238;43.508;4.980;2023-07-20T13:15:46;36.80;78.80
10384;DHT22;5238;43.508;4.980;2023-07-20T13:18:13;36.70;78.20
10384;DHT22;5238;43.508;4.980;2023-07-20T13:20:40;36.70;77.30
10384;DHT22;5238;43.508;4.980;2023-07-20T13:23:07;36.70;77.40
10384;DHT22;5238;43.508;4.980;2023-07-20T13:25:34;36.70;78.10
10384;DHT22;5238;43.508;4.980;2023-07-20T13:28:02;36.60;79.60
10384;DHT22;5238;43.508;4.980;2023-07-20T13:30:30;36.60;77.90
10384;DHT22;5238;43.508;4.980;2023-07-20T13:32:57;36.60;76.80
10384;DHT22;5238;43.508;4.980;2023-07-20T13:35:24;36.60;76.10
10384;DHT22;5238;43.508;4.980;2023-07-20T13:37:51;36.50;76.60
10384;DHT22;5238;43.508;4.980;2023-07-20T13:40:18;36.50;79.50
10384;DHT22;5238;43.508;4.980;2023-07-20T13:42:45;36.60;79.30
10384;DHT22;5238;43.508;4.980;2023-07-20T13:45:12;36.60;80.40
10384;DHT22;5238;43.508;4.980;2023-07-20T13:47:40;36.60;77.20
10384;DHT22;5238;43.508;4.980;2023-07-20T13:50:08;36.70;77.90
10384;DHT22;5238;43.508;4.980;2023-07-20T13:52:35;36.70;78.80
10384;DHT22;5238;43.508;4.980;2023-07-20T13:55:03;36.70;77.10
10384;DHT22;5238;43.508;4.980;2023-07-20T13:57:30;36.70;77.70
10384;DHT22;5238;43.508;4.980;2023-07-20T13:59:57;36.60;76.70
10384;DHT22;5238;43.508;4.980;2023-07-20T14:02:25;36.60;77.40
10384;DHT22;5238;43.508;4.980;2023-07-20T14:04:54;36.70;76.00
10384;DHT22;5238;43.508;4.980;2023-07-20T14:07:21;36.60;75.90
10384;DHT22;5238;43.508;4.980;2023-07-20T14:09:49;36.60;77.00
10384;DHT22;5238;43.508;4.980;2023-07-20T14:12:16;36.70;77.60
10384;DHT22;5238;43.508;4.980;2023-07-20T14:14:43;36.70;77.50
10384;DHT22;5238;43.508;4.980;2023-07-20T14:17:10;36.70;75.70
10384;DHT22;5238;43.508;4.980;2023-07-20T14:19:38;36.60;76.60
10384;DHT22;5238;43.508;4.980;2023-07-20T14:22:07;36.70;76.70
10384;DHT22;5238;43.508;4.980;2023-07-20T14:24:34;36.60;76.60
10384;DHT22;5238;43.508;4.980;2023-07-20T14:27:01;36.60;77.10
10384;DHT22;5238;43.508;4.980;2023-07-20T14:29:28;36.70;76.50
10384;DHT22;5238;43.508;4.980;2023-07-20T14:31:57;36.70;74.90
10384;DHT22;5238;43.508;4.980;2023-07-20T14:34:24;36.70;75.20
10384;DHT22;5238;43.508;4.980;2023-07-20T14:36:51;36.60;74.40
10384;DHT22;5238;43.508;4.980;2023-07-20T14:39:19;36.60;75.40
10384;DHT22;5238;43.508;4.980;2023-07-20T14:41:48;36.70;75.30
10384;DHT22;5238;43.508;4.980;2023-07-20T14:44:15;36.70;75.90
10384;DHT22;5238;43.508;4.980;2023-07-20T14:46:42;36.70;74.80
10384;DHT22;5238;43.508;4.980;2023-07-20T14:49:09;36.70;75.80
10384;DHT22;5238;43.508;4.980;2023-07-20T14:51:36;36.70;76.10
10384;DHT22;5238;43.508;4.980;2023-07-20T14:54:09;36.80;74.90
10384;DHT22;5238;43.508;4.980;2023-07-20T14:56:38;36.80;76.60
10384;DHT22;5238;43.508;4.980;2023-07-20T14:59:05;36.80;75.30
10384;DHT22;5238;43.508;4.980;2023-07-20T15:01:32;36.80;76.00
10384;DHT22;5238;43.508;4.980;2023-07-20T15:03:59;36.80;75.80
10384;DHT22;5238;43.508;4.980;2023-07-20T15:06:26;36.80;75.70
10384;DHT22;5238;43.508;4.980;2023-07-20T15:08:56;36.80;74.40
10384;DHT22;5238;43.508;4.980;2023-07-20T15:11:23;36.80;76.10
10384;DHT22;5238;43.508;4.980;2023-07-20T15:13:51;36.80;74.60
10384;DHT22;5238;43.508;4.980;2023-07-20T15:16:19;36.80;74.90
10384;DHT22;5238;43.508;4.980;2023-07-20T15:18:46;36.80;75.10
10384;DHT22;5238;43.508;4.980;2023-07-20T15:21:13;36.80;75.90
10384;DHT22;5238;43.508;4.980;2023-07-20T15:23:40;36.80;76.00
10384;DHT22;5238;43.508;4.980;2023-07-20T15:26:07;36.70;76.70
10384;DHT22;5238;43.508;4.980;2023-07-20T15:28:34;36.70;76.00
10384;DHT22;5238;43.508;4.980;2023-07-20T15:31:03;36.70;76.40
10384;DHT22;5238;43.508;4.980;2023-07-20T15:33:31;36.70;75.50
10384;DHT22;5238;43.508;4.980;2023-07-20T15:35:58;36.70;75.30
10384;DHT22;5238;43.508;4.980;2023-07-20T15:38:25;36.70;76.30
10384;DHT22;5238;43.508;4.980;2023-07-20T15:40:52;36.70;76.60
10384;DHT22;5238;43.508;4.980;2023-07-20T15:43:20;36.70;78.10
10384;DHT22;5238;43.508;4.980;2023-07-20T15:45:48;36.60;76.90
10384;DHT22;5238;43.508;4.980;2023-07-20T15:48:17;36.60;77.10
10384;DHT22;5238;43.508;4.980;2023-07-20T15:50:46;36.60;77.50
10384;DHT22;5238;43.508;4.980;2023-07-20T15:53:13;36.60;76.60
10384;DHT22;5238;43.508;4.980;2023-07-20T15:55:40;36.60;76.00
10384;DHT22;5238;43.508;4.980;2023-07-20T15:58:06;36.60;76.30